Latest Weather Observations for Kempsey Airport

IDN60801

Issued at 11:03 am EST Sunday 31 July 2016 (issued every 30 minutes, with the page automatically refreshed every 10 minutes)

About weather observations | Map of weather stations | Latest weather observations for NSW | Other Formats
Station Details ID: 059007 Name: KEMPSEY AIRPORT AWS Lat: -31.07 Lon: 152.77 Height: 13.0 m
Data from the previous 72 hours. | See also: Recent months at Kempsey Airport
Date/Time
EST
Temp
°C
App
Temp
°C
Dew
Point
°C
Rel
Hum
%
Delta-T
°C
Wind Press
QNH
hPa
Press
MSL
hPa
Rain since
9am
mm
Dir  Spd
km/h
Gust
km/h
Spd
kts
Gust
kts
31/11:00am 20.2 16.0 3.9 34 7.8 NNW 15 20 8 11 1017.7 1017.7 0.0
31/10:30am 18.5 13.6 4.3 39 6.7 NW 19 24 10 13 1018.3 1018.3 0.0
31/10:00am 17.1 13.7 5.7 47 5.5 NW 13 22 7 12 1018.8 1018.8 0.0
31/09:30am 14.5 9.9 5.8 56 4.1 NW 19 24 10 13 1019.0 1019.0 0.0
31/09:00am 11.8 8.9 6.7 71 2.4 WNW 11 15 6 8 1019.1 1019.1 0.0
31/08:30am 9.8 6.9 6.5 80 1.5 W 11 15 6 8 1019.2 1019.2 0.0
31/08:00am 8.2 5.6 6.0 86 1.0 WSW 9 13 5 7 1019.2 1019.2 0.0
31/07:30am 7.0 4.2 5.3 89 0.8 WNW 9 13 5 7 1019.0 1019.0 0.0
31/07:00am 4.9 2.4 3.6 91 0.5 WSW 6 7 3 4 1018.7 1018.7 0.0
31/06:30am 4.5 1.7 3.2 91 0.5 WSW 7 11 4 6 1018.5 1018.5 0.0
31/06:00am 4.7 1.9 3.2 90 0.6 WSW 7 9 4 5 1018.3 1018.3 0.0
31/05:30am 5.4 2.9 3.9 90 0.6 SSW 6 7 3 4 1018.3 1018.3 0.0
31/05:00am 5.7 4.4 4.2 90 0.6 CALM 0 0 0 0 1018.0 1018.0 0.0
31/04:30am 5.5 2.4 3.5 87 0.8 WSW 9 11 5 6 1018.0 1018.0 0.0
31/04:00am 5.6 2.5 3.4 86 0.9 WSW 9 11 5 6 1018.2 1018.2 0.0
31/03:30am 7.3 4.9 5.4 88 0.8 NW 7 11 4 6 1018.1 1018.1 0.0
31/03:00am 7.0 4.5 4.7 85 1.0 SW 7 11 4 6 1018.4 1018.4 0.0
31/02:30am 7.8 5.4 5.4 85 1.1 W 7 11 4 6 1018.5 1018.5 0.0
31/02:00am 7.8 5.5 5.6 86 1.0 W 7 11 4 6 1019.1 1019.1 0.0
31/01:30am 7.5 6.5 5.5 87 0.9 CALM 0 0 0 0 1019.7 1019.7 0.0
31/01:00am 7.2 4.9 5.5 89 0.8 WSW 7 11 4 6 1020.1 1020.1 0.0
31/12:30am 7.3 5.6 6.1 92 0.5 WSW 4 9 2 5 1020.4 1020.4 0.0
31/12:00am 7.1 4.9 6.0 93 0.5 WNW 7 9 4 5 1020.6 1020.6 0.0
 
Date/Time
EST
Temp
°C
App
Temp
°C
Dew
Point
°C
Rel
Hum
%
Delta-T
°C
Wind Press
QNH
hPa
Press
MSL
hPa
Rain since
9am
mm
Dir  Spd
km/h
Gust
km/h
Spd
kts
Gust
kts
30/11:30pm 7.2 5.0 6.1 93 0.5 WSW 7 11 4 6 1020.9 1020.9 0.0
30/11:00pm 7.5 6.3 6.4 93 0.5 WSW 2 9 1 5 1020.9 1020.9 0.0
30/10:30pm 7.3 4.8 6.4 94 0.4 WSW 9 13 5 7 1020.9 1020.9 0.0
30/10:00pm 6.7 4.4 5.8 94 0.4 WSW 7 11 4 6 1020.7 1020.7 0.0
30/09:30pm 6.8 4.1 5.7 93 0.5 WSW 9 11 5 6 1020.6 1020.6 0.0
30/09:00pm 6.9 4.2 5.7 92 0.5 W 9 11 5 6 1020.8 1020.8 0.0
30/08:30pm 7.4 5.2 6.0 91 0.6 W 7 9 4 5 1020.9 1020.9 0.0
30/08:00pm 7.9 6.0 6.7 92 0.6 WNW 6 7 3 4 1020.9 1020.9 0.0
30/07:30pm 8.6 6.2 7.2 91 0.7 W 9 11 5 6 1021.1 1021.1 0.0
30/07:00pm 8.7 7.8 6.2 84 1.1 CALM 0 0 0 0 1020.9 1020.9 0.0
30/06:30pm 10.3 9.9 8.2 87 1.0 CALM 0 0 0 0 1020.8 1020.8 0.0
30/06:00pm 12.4 12.0 8.1 75 2.1 CALM 0 0 0 0 1020.4 1020.4 0.0
30/05:30pm 13.9 12.2 8.5 70 2.7 E 7 9 4 5 1019.9 1019.9 0.0
30/05:00pm 15.6 13.9 8.4 62 3.6 ENE 7 13 4 7 1019.7 1019.7 0.0
30/04:30pm 17.3 14.4 8.2 55 4.6 E 13 17 7 9 1019.4 1019.4 0.0
30/04:00pm 18.5 15.6 8.2 51 5.3 E 13 15 7 8 1019.3 1019.3 0.0
30/03:30pm 19.0 15.9 7.4 47 5.9 E 13 20 7 11 1019.4 1019.4 0.0
30/03:00pm 19.6 16.5 7.4 45 6.2 E 13 17 7 9 1019.3 1019.3 0.0
30/02:30pm 19.5 17.3 6.3 42 6.6 SE 7 13 4 7 1019.6 1019.6 0.0
30/02:00pm 19.7 17.7 6.1 41 6.7 E 6 9 3 5 1019.7 1019.7 0.0
30/01:30pm 19.4 16.7 5.5 40 6.8 ESE 9 17 5 9 1019.8 1019.8 0.0
30/01:00pm 19.2 16.0 5.3 40 6.8 ESE 11 19 6 10 1020.1 1020.1 0.0
30/12:30pm 19.0 16.3 5.5 41 6.6 ESE 9 17 5 9 1020.5 1020.5 0.0
30/12:00pm 18.8 16.0 5.3 41 6.5 W 9 17 5 9 1021.0 1021.0 0.0
30/11:30am 18.2 15.1 3.7 38 6.8 WNW 9 15 5 8 1021.6 1021.6 0.0
30/11:00am 17.0 13.9 3.7 41 6.2 WNW 9 15 5 8 1022.0 1022.0 0.0
30/10:30am 15.6 12.1 3.7 45 5.5 W 11 15 6 8 1022.4 1022.4 0.0
30/10:00am 14.5 9.9 5.6 55 4.2 NW 19 24 10 13 1022.5 1022.5 0.0
30/09:30am 11.9 7.8 4.6 61 3.3 NW 15 19 8 10 1022.7 1022.7 0.0
30/09:00am 9.1 4.0 4.1 71 2.2 WNW 20 26 11 14 1022.9 1022.9 0.0
30/08:30am 7.4 3.1 3.1 74 1.8 WNW 15 22 8 12 1022.9 1022.9 0.0
30/08:00am 5.5 1.8 2.3 80 1.3 W 11 13 6 7 1022.7 1022.7 0.0
30/07:30am 3.0 -1.2 1.5 90 0.6 WSW 13 15 7 8 1022.3 1022.3 0.0
30/07:00am 2.0 -1.6 0.7 91 0.5 W 9 11 5 6 1022.3 1022.3 0.0
30/06:30am 1.7 -2.4 -0.1 88 0.7 WSW 11 13 6 7 1021.9 1021.9 0.0
30/06:00am 1.5 -2.5 0.3 92 0.4 WSW 11 15 6 8 1021.5 1021.5 0.0
30/05:30am 1.7 -1.9 0.4 91 0.5 W 9 11 5 6 1021.2 1021.2 0.0
30/05:00am 1.4 -3.0 0.4 93 0.4 WSW 13 15 7 8 1021.0 1021.0 0.0
30/04:30am 1.0 -3.1 0.0 93 0.4 WSW 11 13 6 7 1020.7 1020.7 0.0
30/04:00am 1.1 -2.6 0.2 94 0.3 W 9 11 5 6 1020.6 1020.6 0.0
30/03:30am 1.0 -2.1 -0.1 92 0.4 W 6 7 3 4 1020.5 1020.5 0.0
30/03:00am 1.7 -1.3 0.7 93 0.4 SW 6 9 3 5 1020.6 1020.6 0.0
30/02:30am 3.1 -0.2 2.2 94 0.4 WSW 9 13 5 7 1020.6 1020.6 0.0
30/02:00am 3.5 -0.5 2.6 94 0.4 WSW 13 15 7 8 1020.6 1020.6 0.0
30/01:30am 2.6 -1.3 1.4 92 0.5 WSW 11 13 6 7 1020.4 1020.4 0.0
30/01:00am 4.0 1.2 3.0 93 0.4 WNW 7 11 4 6 1020.4 1020.4 0.0
30/12:30am 4.2 1.0 3.2 93 0.4 WSW 9 11 5 6 1020.3 1020.3 0.0
30/12:00am 4.7 1.3 3.8 94 0.4 W 11 13 6 7 1020.1 1020.1 0.0
 
Date/Time
EST
Temp
°C
App
Temp
°C
Dew
Point
°C
Rel
Hum
%
Delta-T
°C
Wind Press
QNH
hPa
Press
MSL
hPa
Rain since
9am
mm
Dir  Spd
km/h
Gust
km/h
Spd
kts
Gust
kts
29/11:30pm 3.8 0.6 2.8 93 0.4 W 9 11 5 6 1020.1 1020.1 0.0
29/11:00pm 4.9 1.8 3.7 92 0.5 WSW 9 11 5 6 1020.1 1020.1 0.0
29/10:30pm 4.4 1.5 2.8 89 0.6 WNW 7 9 4 5 1020.0 1020.0 0.0
29/10:00pm 5.5 2.5 4.3 92 0.5 WSW 9 9 5 5 1019.9 1019.9 0.0
29/09:30pm 6.8 4.1 5.6 92 0.5 WNW 9 11 5 6 1019.7 1019.7 0.0
29/09:00pm 7.9 5.0 6.7 92 0.6 W 11 13 6 7 1019.7 1019.7 0.0
29/08:30pm 7.4 4.8 6.0 91 0.6 W 9 13 5 7 1019.6 1019.6 0.0
29/08:00pm 6.9 4.1 5.2 89 0.7 W 9 11 5 6 1019.5 1019.5 0.0
29/07:30pm 8.2 6.3 6.5 89 0.8 W 6 9 3 5 1019.3 1019.3 0.0
29/07:00pm 9.3 7.2 6.7 84 1.2 W 7 9 4 5 1019.1 1019.1 0.0
29/06:30pm 10.4 9.8 7.5 82 1.4 CALM 0 0 0 0 1019.0 1019.0 0.0
29/06:00pm 11.4 10.4 7.3 76 2.0 SSE 2 7 1 4 1018.8 1018.8 0.0
29/05:30pm 14.8 13.1 8.3 65 3.3 ESE 7 9 4 5 1018.4 1018.4 0.0
29/05:00pm 16.0 14.2 8.0 59 4.0 ESE 7 9 4 5 1018.1 1018.1 0.0
29/04:30pm 17.4 14.5 8.0 54 4.8 E 13 17 7 9 1018.0 1018.0 0.0
29/04:00pm 18.5 15.1 7.6 49 5.5 ESE 15 20 8 11 1017.9 1017.9 0.0
29/03:30pm 19.7 15.4 7.1 44 6.4 E 19 26 10 14 1018.0 1018.0 0.0
29/03:00pm 21.2 18.2 3.9 32 8.3 SE 9 15 5 8 1018.1 1018.1 0.0
29/02:30pm 20.7 17.9 3.0 31 8.3 SSE 7 11 4 6 1018.2 1018.2 0.0
29/02:00pm 20.4 17.6 3.2 32 8.1 S 7 11 4 6 1018.5 1018.5 0.0
29/01:30pm 20.0 18.2 3.7 34 7.7 NE 2 7 1 4 1018.8 1018.8 0.0
29/01:00pm 19.9 17.4 4.8 37 7.3 NNE 7 13 4 7 1019.2 1019.2 0.0
29/12:30pm 19.5 17.4 5.6 40 6.8 NE 6 9 3 5 1019.8 1019.8 0.0
29/12:00pm 18.5 16.1 4.3 39 6.7 NW 6 13 3 7 1020.5 1020.5 0.0
29/11:30am 18.0 15.9 5.6 44 6.0 N 6 13 3 7 1021.3 1021.3 0.0
29/11:00am 16.6 14.1 4.9 46 5.5 W 7 11 4 6 1021.9 1021.9 0.0
29/10:30am 15.9 13.2 5.5 50 5.0 WNW 9 17 5 9 1022.6 1022.6 0.0
29/10:00am 14.6 11.6 6.2 57 4.0 WNW 11 15 6 8 1023.1 1023.1 0.0
29/09:30am 12.8 10.1 5.7 62 3.3 WNW 9 13 5 7 1023.3 1023.3 0.0
29/09:00am 11.0 7.9 5.7 70 2.4 WNW 11 15 6 8 1023.5 1023.5 0.0
29/08:30am 9.2 6.5 5.8 79 1.6 WNW 9 13 5 7 1023.6 1023.6 0.0
29/08:00am 7.1 4.8 4.8 85 1.0 WSW 6 11 3 6 1023.6 1023.6 0.0
29/07:30am 5.3 2.6 3.8 90 0.6 WSW 7 9 4 5 1023.5 1023.5 0.0
29/07:00am 3.5 0.5 2.3 92 0.5 W 7 9 4 5 1023.2 1023.2 0.0
29/06:30am 3.3 0.0 2.3 93 0.4 WSW 9 11 5 6 1023.0 1023.0 0.0
29/06:00am 2.6 -0.8 1.7 94 0.3 W 9 11 5 6 1022.8 1022.8 0.0
29/05:30am 2.9 -0.9 2.0 94 0.4 WSW 11 13 6 7 1022.5 1022.5 0.0
29/05:00am 2.3 -1.6 1.3 93 0.4 WSW 11 13 6 7 1022.3 1022.3 0.0
29/04:30am 2.7 -0.7 1.7 93 0.4 WSW 9 11 5 6 1022.2 1022.2 0.0
29/04:00am 3.1 -0.3 2.1 93 0.4 W 9 11 5 6 1022.1 1022.1 0.0
29/03:30am 3.3 0.3 2.3 93 0.4 WSW 7 11 4 6 1022.0 1022.0 0.0
29/03:00am 3.4 -0.3 2.4 93 0.4 WSW 11 13 6 7 1022.1 1022.1 0.0
29/02:30am 3.4 0.1 2.4 93 0.4 WSW 9 11 5 6 1022.1 1022.1 0.0
29/02:00am 3.4 0.4 2.1 91 0.5 WSW 7 9 4 5 1022.1 1022.1 0.0
29/01:30am 4.2 1.4 3.0 92 0.5 W 7 9 4 5 1022.3 1022.3 0.0
29/01:00am 4.1 1.3 3.1 93 0.4 W 7 11 4 6 1022.5 1022.5 0.0
29/12:30am 3.9 0.6 2.7 92 0.5 WSW 9 13 5 7 1022.7 1022.7 0.0
29/12:00am 4.1 1.4 2.9 92 0.5 W 6 9 3 5 1022.8 1022.8 0.0
 
Date/Time
EST
Temp
°C
App
Temp
°C
Dew
Point
°C
Rel
Hum
%
Delta-T
°C
Wind Press
QNH
hPa
Press
MSL
hPa
Rain since
9am
mm
Dir  Spd
km/h
Gust
km/h
Spd
kts
Gust
kts
28/11:30pm 3.9 0.6 2.4 90 0.6 WSW 9 9 5 5 1022.9 1022.9 0.0
28/11:00pm 5.2 2.6 4.0 92 0.5 W 7 7 4 4 1023.2 1023.2 0.0
28/10:30pm 4.4 1.2 3.1 91 0.5 WSW 9 11 5 6 1023.3 1023.3 0.0
28/10:00pm 4.8 2.0 3.1 89 0.7 W 7 9 4 5 1023.2 1023.2 0.0
28/09:30pm 6.6 4.2 5.1 90 0.7 WNW 7 7 4 4 1023.3 1023.3 0.0
28/09:00pm 5.6 2.9 3.9 89 0.7 WNW 7 9 4 5 1023.3 1023.3 0.0
28/08:30pm 6.4 3.9 4.6 88 0.8 WNW 7 9 4 5 1023.3 1023.3 0.0
28/08:00pm 5.7 3.0 3.5 86 0.9 SW 7 11 4 6 1023.4 1023.4 0.0
28/07:30pm 7.6 5.4 5.1 84 1.1 NW 6 6 3 3 1023.2 1023.2 0.0
28/07:00pm 7.9 4.7 5.0 82 1.3 W 11 13 6 7 1023.1 1023.1 0.0
28/06:30pm 8.7 7.0 3.9 72 2.1 WSW 2 9 1 5 1022.7 1022.7 0.0
28/06:00pm 11.3 9.7 4.5 63 3.1 ENE 2 6 1 3 1022.5 1022.5 0.0
28/05:30pm 13.4 10.5 4.8 56 4.0 ENE 9 11 5 6 1022.1 1022.1 0.0
28/05:00pm 14.8 11.9 4.5 50 4.8 ENE 9 15 5 8 1021.8 1021.8 0.0
28/04:30pm 16.2 12.9 4.6 46 5.5 E 11 15 6 8 1021.6 1021.6 0.0
28/04:00pm 17.5 13.7 4.1 41 6.3 ENE 13 19 7 10 1021.3 1021.3 0.0
28/03:30pm 18.6 14.5 2.4 34 7.4 NE 13 19 7 10 1021.4 1021.4 0.0
28/03:00pm 19.4 15.9 1.4 30 8.1 ENE 9 13 5 7 1021.4 1021.4 0.0
28/02:30pm 18.9 15.0 1.0 30 8.0 ENE 11 15 6 8 1021.5 1021.5 0.0
28/02:00pm 18.9 15.8 1.4 31 7.8 E 7 15 4 8 1021.8 1021.8 0.0
28/01:30pm 18.6 15.1 1.2 31 7.8 E 9 15 5 8 1022.0 1022.0 0.0
28/01:00pm 18.5 15.4 1.5 32 7.6 E 7 15 4 8 1022.5 1022.5 0.0
28/12:30pm 18.5 15.5 1.9 33 7.5 E 7 13 4 7 1023.0 1023.0 0.0
28/12:00pm 17.6 14.0 0.7 32 7.4 WNW 9 17 5 9 1023.6 1023.6 0.0
28/11:30am 17.2 14.0 0.8 33 7.2 SSE 7 11 4 6 1024.1 1024.1 0.0

Other Formats:

Comma delimited format used in spreadsheet applications
http://www.bom.gov.au/fwo/IDN60801/IDN60801.94785.axf

JavaScript Object Notation format (JSON) in row-major order
http://www.bom.gov.au/fwo/IDN60801/IDN60801.94785.json